sensor_id;sensor_type;location;lat;lon;timestamp;P1;durP1;ratioP1;P2;durP2;ratioP2
20245;SDS011;10281;54.406;18.556;2022-12-29T00:00:37;6.60;;;4.57;;
20245;SDS011;10281;54.406;18.556;2022-12-29T00:03:03;6.77;;;4.80;;
20245;SDS011;10281;54.406;18.556;2022-12-29T00:05:30;8.67;;;5.20;;
20245;SDS011;10281;54.406;18.556;2022-12-29T00:07:57;5.77;;;4.93;;
20245;SDS011;10281;54.406;18.556;2022-12-29T00:10:24;8.27;;;5.17;;
20245;SDS011;10281;54.406;18.556;2022-12-29T00:12:50;6.63;;;4.50;;
20245;SDS011;10281;54.406;18.556;2022-12-29T00:15:22;6.50;;;5.07;;
20245;SDS011;10281;54.406;18.556;2022-12-29T00:17:55;5.73;;;5.13;;
20245;SDS011;10281;54.406;18.556;2022-12-29T00:20:21;5.80;;;4.33;;
20245;SDS011;10281;54.406;18.556;2022-12-29T00:22:54;4.80;;;4.30;;
20245;SDS011;10281;54.406;18.556;2022-12-29T00:25:26;7.97;;;4.57;;
20245;SDS011;10281;54.406;18.556;2022-12-29T00:27:58;6.40;;;4.80;;
20245;SDS011;10281;54.406;18.556;2022-12-29T00:30:31;6.40;;;4.80;;
20245;SDS011;10281;54.406;18.556;2022-12-29T00:33:12;6.33;;;4.27;;
20245;SDS011;10281;54.406;18.556;2022-12-29T00:35:46;5.77;;;3.87;;
20245;SDS011;10281;54.406;18.556;2022-12-29T00:38:18;4.40;;;3.97;;
20245;SDS011;10281;54.406;18.556;2022-12-29T00:40:52;6.50;;;4.20;;
20245;SDS011;10281;54.406;18.556;2022-12-29T00:43:27;6.83;;;4.17;;
20245;SDS011;10281;54.406;18.556;2022-12-29T00:45:59;4.47;;;3.80;;
20245;SDS011;10281;54.406;18.556;2022-12-29T00:48:26;4.50;;;3.37;;
20245;SDS011;10281;54.406;18.556;2022-12-29T00:50:58;5.60;;;3.77;;
20245;SDS011;10281;54.406;18.556;2022-12-29T00:53:25;4.93;;;3.43;;
20245;SDS011;10281;54.406;18.556;2022-12-29T00:55:52;5.03;;;3.33;;
20245;SDS011;10281;54.406;18.556;2022-12-29T00:58:18;5.77;;;3.40;;
20245;SDS011;10281;54.406;18.556;2022-12-29T01:00:45;3.90;;;3.40;;
20245;SDS011;10281;54.406;18.556;2022-12-29T01:03:11;2.93;;;2.60;;
20245;SDS011;10281;54.406;18.556;2022-12-29T01:05:38;4.43;;;2.80;;
20245;SDS011;10281;54.406;18.556;2022-12-29T01:08:04;2.83;;;2.53;;
20245;SDS011;10281;54.406;18.556;2022-12-29T01:10:31;3.03;;;2.70;;
20245;SDS011;10281;54.406;18.556;2022-12-29T01:12:58;3.93;;;2.83;;
20245;SDS011;10281;54.406;18.556;2022-12-29T01:15:24;3.17;;;2.60;;
20245;SDS011;10281;54.406;18.556;2022-12-29T01:17:51;2.57;;;2.37;;
20245;SDS011;10281;54.406;18.556;2022-12-29T01:20:18;2.50;;;2.30;;
20245;SDS011;10281;54.406;18.556;2022-12-29T01:22:45;2.50;;;2.20;;
20245;SDS011;10281;54.406;18.556;2022-12-29T01:25:12;3.40;;;2.27;;
20245;SDS011;10281;54.406;18.556;2022-12-29T01:27:39;3.37;;;2.30;;
20245;SDS011;10281;54.406;18.556;2022-12-29T01:30:06;2.37;;;2.17;;
20245;SDS011;10281;54.406;18.556;2022-12-29T01:32:33;5.07;;;3.77;;
20245;SDS011;10281;54.406;18.556;2022-12-29T01:34:59;2.47;;;2.20;;
20245;SDS011;10281;54.406;18.556;2022-12-29T01:37:26;3.33;;;2.03;;
20245;SDS011;10281;54.406;18.556;2022-12-29T01:39:52;2.50;;;2.30;;
20245;SDS011;10281;54.406;18.556;2022-12-29T01:42:19;2.73;;;2.50;;
20245;SDS011;10281;54.406;18.556;2022-12-29T01:44:55;2.77;;;2.50;;
20245;SDS011;10281;54.406;18.556;2022-12-29T01:47:39;2.53;;;2.00;;
20245;SDS011;10281;54.406;18.556;2022-12-29T01:50:13;2.73;;;2.00;;
20245;SDS011;10281;54.406;18.556;2022-12-29T01:52:44;2.40;;;2.20;;
20245;SDS011;10281;54.406;18.556;2022-12-29T01:55:14;2.73;;;2.07;;
20245;SDS011;10281;54.406;18.556;2022-12-29T01:57:43;2.87;;;2.20;;
20245;SDS011;10281;54.406;18.556;2022-12-29T02:00:13;3.07;;;2.10;;
20245;SDS011;10281;54.406;18.556;2022-12-29T02:02:44;2.97;;;1.77;;
20245;SDS011;10281;54.406;18.556;2022-12-29T02:05:17;3.67;;;2.10;;
20245;SDS011;10281;54.406;18.556;2022-12-29T02:07:45;2.07;;;1.87;;
20245;SDS011;10281;54.406;18.556;2022-12-29T02:10:13;2.20;;;2.00;;
20245;SDS011;10281;54.406;18.556;2022-12-29T02:12:40;1.97;;;1.77;;
20245;SDS011;10281;54.406;18.556;2022-12-29T02:15:07;2.03;;;1.83;;
20245;SDS011;10281;54.406;18.556;2022-12-29T02:17:39;2.13;;;1.90;;
20245;SDS011;10281;54.406;18.556;2022-12-29T02:23:37;2.90;;;1.80;;
20245;SDS011;10281;54.406;18.556;2022-12-29T02:32:13;2.17;;;1.90;;
20245;SDS011;10281;54.406;18.556;2022-12-29T02:35:01;2.00;;;1.70;;
20245;SDS011;10281;54.406;18.556;2022-12-29T02:37:37;2.50;;;1.73;;
20245;SDS011;10281;54.406;18.556;2022-12-29T02:40:24;1.90;;;1.60;;
20245;SDS011;10281;54.406;18.556;2022-12-29T02:42:58;1.90;;;1.80;;
20245;SDS011;10281;54.406;18.556;2022-12-29T02:45:38;1.93;;;1.73;;
20245;SDS011;10281;54.406;18.556;2022-12-29T02:48:09;2.73;;;1.87;;
20245;SDS011;10281;54.406;18.556;2022-12-29T02:53:32;2.07;;;1.80;;
20245;SDS011;10281;54.406;18.556;2022-12-29T02:56:05;3.13;;;1.77;;
20245;SDS011;10281;54.406;18.556;2022-12-29T02:58:32;2.40;;;1.57;;
20245;SDS011;10281;54.406;18.556;2022-12-29T03:01:06;1.67;;;1.53;;
20245;SDS011;10281;54.406;18.556;2022-12-29T03:04:18;1.77;;;1.60;;
20245;SDS011;10281;54.406;18.556;2022-12-29T03:06:47;2.47;;;1.70;;
20245;SDS011;10281;54.406;18.556;2022-12-29T03:09:21;2.87;;;1.53;;
20245;SDS011;10281;54.406;18.556;2022-12-29T03:11:58;1.73;;;1.63;;
20245;SDS011;10281;54.406;18.556;2022-12-29T03:14:36;1.90;;;1.80;;
20245;SDS011;10281;54.406;18.556;2022-12-29T03:17:26;4.07;;;1.70;;
20245;SDS011;10281;54.406;18.556;2022-12-29T03:20:02;3.27;;;1.67;;
20245;SDS011;10281;54.406;18.556;2022-12-29T03:22:34;1.87;;;1.77;;
20245;SDS011;10281;54.406;18.556;2022-12-29T03:25:08;1.53;;;1.43;;
20245;SDS011;10281;54.406;18.556;2022-12-29T03:27:44;1.97;;;1.70;;
20245;SDS011;10281;54.406;18.556;2022-12-29T03:30:14;2.40;;;1.53;;
20245;SDS011;10281;54.406;18.556;2022-12-29T03:32:44;2.53;;;1.53;;
20245;SDS011;10281;54.406;18.556;2022-12-29T03:35:13;3.03;;;1.77;;
20245;SDS011;10281;54.406;18.556;2022-12-29T03:37:44;1.70;;;1.60;;
20245;SDS011;10281;54.406;18.556;2022-12-29T03:40:14;2.10;;;1.40;;
20245;SDS011;10281;54.406;18.556;2022-12-29T03:42:40;1.83;;;1.73;;
20245;SDS011;10281;54.406;18.556;2022-12-29T03:45:07;3.03;;;1.93;;
20245;SDS011;10281;54.406;18.556;2022-12-29T03:47:35;1.70;;;1.60;;
20245;SDS011;10281;54.406;18.556;2022-12-29T03:50:02;1.90;;;1.70;;
20245;SDS011;10281;54.406;18.556;2022-12-29T03:52:28;2.43;;;1.77;;
20245;SDS011;10281;54.406;18.556;2022-12-29T03:54:55;3.30;;;1.80;;
20245;SDS011;10281;54.406;18.556;2022-12-29T03:57:21;1.93;;;1.83;;
20245;SDS011;10281;54.406;18.556;2022-12-29T03:59:48;2.13;;;1.73;;
20245;SDS011;10281;54.406;18.556;2022-12-29T04:02:15;2.13;;;1.67;;
20245;SDS011;10281;54.406;18.556;2022-12-29T04:04:41;2.40;;;2.00;;
20245;SDS011;10281;54.406;18.556;2022-12-29T04:07:08;2.03;;;1.83;;
20245;SDS011;10281;54.406;18.556;2022-12-29T04:09:34;2.37;;;2.17;;
20245;SDS011;10281;54.406;18.556;2022-12-29T04:12:01;1.93;;;1.67;;
20245;SDS011;10281;54.406;18.556;2022-12-29T04:14:28;2.80;;;2.20;;
20245;SDS011;10281;54.406;18.556;2022-12-29T04:16:54;2.40;;;2.20;;
20245;SDS011;10281;54.406;18.556;2022-12-29T04:19:21;2.20;;;2.10;;
20245;SDS011;10281;54.406;18.556;2022-12-29T04:21:47;6.60;;;2.80;;
20245;SDS011;10281;54.406;18.556;2022-12-29T04:24:14;3.63;;;2.80;;
20245;SDS011;10281;54.406;18.556;2022-12-29T04:26:41;3.87;;;3.20;;
20245;SDS011;10281;54.406;18.556;2022-12-29T04:29:09;4.37;;;3.83;;
20245;SDS011;10281;54.406;18.556;2022-12-29T04:31:36;4.23;;;3.70;;
20245;SDS011;10281;54.406;18.556;2022-12-29T04:34:02;4.60;;;3.90;;
20245;SDS011;10281;54.406;18.556;2022-12-29T04:36:29;4.30;;;3.90;;
20245;SDS011;10281;54.406;18.556;2022-12-29T04:38:56;7.30;;;5.00;;
20245;SDS011;10281;54.406;18.556;2022-12-29T04:41:22;4.93;;;4.30;;
20245;SDS011;10281;54.406;18.556;2022-12-29T04:43:49;7.30;;;4.63;;
20245;SDS011;10281;54.406;18.556;2022-12-29T04:46:16;5.37;;;4.63;;
20245;SDS011;10281;54.406;18.556;2022-12-29T04:48:43;6.20;;;4.67;;
20245;SDS011;10281;54.406;18.556;2022-12-29T04:51:09;7.50;;;5.13;;
20245;SDS011;10281;54.406;18.556;2022-12-29T04:53:36;5.70;;;5.07;;
20245;SDS011;10281;54.406;18.556;2022-12-29T04:56:03;5.33;;;4.80;;
20245;SDS011;10281;54.406;18.556;2022-12-29T04:58:29;6.00;;;5.40;;
20245;SDS011;10281;54.406;18.556;2022-12-29T05:00:56;6.37;;;5.53;;
20245;SDS011;10281;54.406;18.556;2022-12-29T05:03:23;8.47;;;6.07;;
20245;SDS011;10281;54.406;18.556;2022-12-29T05:05:52;8.87;;;6.33;;
20245;SDS011;10281;54.406;18.556;2022-12-29T05:08:20;7.07;;;6.27;;
20245;SDS011;10281;54.406;18.556;2022-12-29T05:10:47;7.83;;;5.80;;
20245;SDS011;10281;54.406;18.556;2022-12-29T05:13:16;8.20;;;5.93;;
20245;SDS011;10281;54.406;18.556;2022-12-29T05:15:49;6.77;;;5.70;;
20245;SDS011;10281;54.406;18.556;2022-12-29T05:18:16;9.83;;;6.80;;
20245;SDS011;10281;54.406;18.556;2022-12-29T05:20:44;7.40;;;6.60;;
20245;SDS011;10281;54.406;18.556;2022-12-29T05:23:11;9.77;;;6.63;;
20245;SDS011;10281;54.406;18.556;2022-12-29T05:25:38;8.63;;;7.33;;
20245;SDS011;10281;54.406;18.556;2022-12-29T05:28:04;8.83;;;6.60;;
20245;SDS011;10281;54.406;18.556;2022-12-29T05:30:31;8.70;;;7.00;;
20245;SDS011;10281;54.406;18.556;2022-12-29T05:32:57;7.87;;;6.77;;
20245;SDS011;10281;54.406;18.556;2022-12-29T05:35:24;8.27;;;6.37;;
20245;SDS011;10281;54.406;18.556;2022-12-29T05:37:51;10.07;;;6.93;;
20245;SDS011;10281;54.406;18.556;2022-12-29T05:40:17;8.60;;;6.67;;
20245;SDS011;10281;54.406;18.556;2022-12-29T05:42:44;9.70;;;6.97;;
20245;SDS011;10281;54.406;18.556;2022-12-29T05:45:10;8.33;;;6.53;;
20245;SDS011;10281;54.406;18.556;2022-12-29T05:47:43;8.47;;;6.63;;
20245;SDS011;10281;54.406;18.556;2022-12-29T05:50:10;8.70;;;6.50;;
20245;SDS011;10281;54.406;18.556;2022-12-29T05:52:37;8.53;;;6.40;;
20245;SDS011;10281;54.406;18.556;2022-12-29T05:55:03;8.13;;;7.00;;
20245;SDS011;10281;54.406;18.556;2022-12-29T05:57:30;8.53;;;6.80;;
20245;SDS011;10281;54.406;18.556;2022-12-29T05:59:57;8.93;;;6.87;;
20245;SDS011;10281;54.406;18.556;2022-12-29T06:02:24;7.67;;;6.63;;
20245;SDS011;10281;54.406;18.556;2022-12-29T06:04:50;8.57;;;6.73;;
20245;SDS011;10281;54.406;18.556;2022-12-29T06:07:17;9.43;;;7.13;;
20245;SDS011;10281;54.406;18.556;2022-12-29T06:09:43;7.87;;;6.60;;
20245;SDS011;10281;54.406;18.556;2022-12-29T06:12:10;7.87;;;6.77;;
20245;SDS011;10281;54.406;18.556;2022-12-29T06:14:37;11.77;;;7.63;;
20245;SDS011;10281;54.406;18.556;2022-12-29T06:17:03;10.43;;;7.00;;
20245;SDS011;10281;54.406;18.556;2022-12-29T06:19:30;8.60;;;6.33;;
20245;SDS011;10281;54.406;18.556;2022-12-29T06:21:57;8.13;;;7.23;;
20245;SDS011;10281;54.406;18.556;2022-12-29T06:24:23;8.07;;;6.50;;
20245;SDS011;10281;54.406;18.556;2022-12-29T06:26:50;7.80;;;6.70;;
20245;SDS011;10281;54.406;18.556;2022-12-29T06:29:16;11.90;;;6.40;;
20245;SDS011;10281;54.406;18.556;2022-12-29T06:31:43;7.40;;;5.93;;
20245;SDS011;10281;54.406;18.556;2022-12-29T06:34:12;7.33;;;6.23;;
20245;SDS011;10281;54.406;18.556;2022-12-29T06:36:38;10.50;;;6.70;;
20245;SDS011;10281;54.406;18.556;2022-12-29T06:39:05;9.97;;;6.47;;
20245;SDS011;10281;54.406;18.556;2022-12-29T06:41:32;8.07;;;6.20;;
20245;SDS011;10281;54.406;18.556;2022-12-29T06:43:58;8.77;;;6.17;;
20245;SDS011;10281;54.406;18.556;2022-12-29T06:46:25;6.67;;;5.83;;
20245;SDS011;10281;54.406;18.556;2022-12-29T06:48:52;7.73;;;5.93;;
20245;SDS011;10281;54.406;18.556;2022-12-29T06:51:18;6.97;;;5.90;;
20245;SDS011;10281;54.406;18.556;2022-12-29T06:53:45;8.40;;;6.40;;
20245;SDS011;10281;54.406;18.556;2022-12-29T06:56:11;7.67;;;6.27;;
20245;SDS011;10281;54.406;18.556;2022-12-29T06:58:38;7.07;;;5.73;;
20245;SDS011;10281;54.406;18.556;2022-12-29T07:01:04;7.53;;;6.10;;
20245;SDS011;10281;54.406;18.556;2022-12-29T07:03:31;9.57;;;7.23;;
20245;SDS011;10281;54.406;18.556;2022-12-29T07:05:58;6.90;;;6.20;;
20245;SDS011;10281;54.406;18.556;2022-12-29T07:08:24;7.17;;;5.83;;
20245;SDS011;10281;54.406;18.556;2022-12-29T07:10:51;8.60;;;6.30;;
20245;SDS011;10281;54.406;18.556;2022-12-29T07:13:18;6.83;;;6.13;;
20245;SDS011;10281;54.406;18.556;2022-12-29T07:15:44;9.53;;;6.47;;
20245;SDS011;10281;54.406;18.556;2022-12-29T07:18:11;7.30;;;6.10;;
20245;SDS011;10281;54.406;18.556;2022-12-29T07:20:37;9.93;;;6.30;;
20245;SDS011;10281;54.406;18.556;2022-12-29T07:23:04;9.30;;;6.40;;
20245;SDS011;10281;54.406;18.556;2022-12-29T07:25:31;8.00;;;6.30;;
20245;SDS011;10281;54.406;18.556;2022-12-29T07:27:57;6.93;;;6.17;;
20245;SDS011;10281;54.406;18.556;2022-12-29T07:30:24;8.97;;;5.97;;
20245;SDS011;10281;54.406;18.556;2022-12-29T07:32:50;8.73;;;6.80;;
20245;SDS011;10281;54.406;18.556;2022-12-29T07:35:17;9.77;;;6.80;;
20245;SDS011;10281;54.406;18.556;2022-12-29T07:37:44;9.83;;;6.87;;
20245;SDS011;10281;54.406;18.556;2022-12-29T07:40:10;8.50;;;6.57;;
20245;SDS011;10281;54.406;18.556;2022-12-29T07:42:38;8.77;;;6.30;;
20245;SDS011;10281;54.406;18.556;2022-12-29T07:45:05;9.17;;;6.30;;
20245;SDS011;10281;54.406;18.556;2022-12-29T07:47:31;7.73;;;6.13;;
20245;SDS011;10281;54.406;18.556;2022-12-29T07:49:58;8.60;;;6.53;;
20245;SDS011;10281;54.406;18.556;2022-12-29T07:52:25;8.87;;;6.23;;
20245;SDS011;10281;54.406;18.556;2022-12-29T07:54:51;9.70;;;6.30;;
20245;SDS011;10281;54.406;18.556;2022-12-29T07:57:18;6.80;;;5.83;;
20245;SDS011;10281;54.406;18.556;2022-12-29T07:59:45;9.07;;;6.20;;
20245;SDS011;10281;54.406;18.556;2022-12-29T08:02:13;7.73;;;6.30;;
20245;SDS011;10281;54.406;18.556;2022-12-29T08:04:40;8.63;;;6.27;;
20245;SDS011;10281;54.406;18.556;2022-12-29T08:07:06;9.43;;;6.57;;
20245;SDS011;10281;54.406;18.556;2022-12-29T08:09:33;8.30;;;6.20;;
20245;SDS011;10281;54.406;18.556;2022-12-29T08:11:59;6.93;;;6.07;;
20245;SDS011;10281;54.406;18.556;2022-12-29T08:14:26;7.30;;;6.27;;
20245;SDS011;10281;54.406;18.556;2022-12-29T08:16:53;7.70;;;5.80;;
20245;SDS011;10281;54.406;18.556;2022-12-29T08:19:19;7.13;;;5.97;;
20245;SDS011;10281;54.406;18.556;2022-12-29T08:21:46;7.20;;;6.03;;
20245;SDS011;10281;54.406;18.556;2022-12-29T08:24:12;6.90;;;5.60;;
20245;SDS011;10281;54.406;18.556;2022-12-29T08:26:39;7.10;;;5.73;;
20245;SDS011;10281;54.406;18.556;2022-12-29T08:29:05;7.97;;;5.80;;
20245;SDS011;10281;54.406;18.556;2022-12-29T08:31:32;8.17;;;5.77;;
20245;SDS011;10281;54.406;18.556;2022-12-29T08:33:59;8.10;;;5.70;;
20245;SDS011;10281;54.406;18.556;2022-12-29T08:36:27;8.10;;;5.97;;
20245;SDS011;10281;54.406;18.556;2022-12-29T08:38:53;8.77;;;7.87;;
20245;SDS011;10281;54.406;18.556;2022-12-29T08:41:20;11.23;;;9.07;;
20245;SDS011;10281;54.406;18.556;2022-12-29T08:43:47;12.10;;;9.67;;
20245;SDS011;10281;54.406;18.556;2022-12-29T08:46:14;8.57;;;7.70;;
20245;SDS011;10281;54.406;18.556;2022-12-29T08:48:42;8.87;;;6.80;;
20245;SDS011;10281;54.406;18.556;2022-12-29T08:51:09;8.27;;;6.50;;
20245;SDS011;10281;54.406;18.556;2022-12-29T08:53:35;6.27;;;5.57;;
20245;SDS011;10281;54.406;18.556;2022-12-29T08:56:02;6.10;;;5.50;;
20245;SDS011;10281;54.406;18.556;2022-12-29T08:58:29;7.63;;;5.47;;
20245;SDS011;10281;54.406;18.556;2022-12-29T09:00:56;5.10;;;4.60;;
20245;SDS011;10281;54.406;18.556;2022-12-29T09:03:24;6.77;;;5.87;;
20245;SDS011;10281;54.406;18.556;2022-12-29T09:05:51;6.10;;;5.10;;
20245;SDS011;10281;54.406;18.556;2022-12-29T09:08:19;6.47;;;4.63;;
20245;SDS011;10281;54.406;18.556;2022-12-29T09:10:46;7.50;;;5.30;;
20245;SDS011;10281;54.406;18.556;2022-12-29T09:13:13;5.53;;;4.90;;
20245;SDS011;10281;54.406;18.556;2022-12-29T09:15:41;7.40;;;5.27;;
20245;SDS011;10281;54.406;18.556;2022-12-29T09:18:08;6.63;;;5.50;;
20245;SDS011;10281;54.406;18.556;2022-12-29T09:20:35;6.27;;;5.13;;
20245;SDS011;10281;54.406;18.556;2022-12-29T09:23:02;5.63;;;5.00;;
20245;SDS011;10281;54.406;18.556;2022-12-29T09:25:31;8.13;;;5.50;;
20245;SDS011;10281;54.406;18.556;2022-12-29T09:27:58;6.77;;;5.23;;
20245;SDS011;10281;54.406;18.556;2022-12-29T09:30:24;8.03;;;5.83;;
20245;SDS011;10281;54.406;18.556;2022-12-29T09:32:51;7.70;;;6.03;;
20245;SDS011;10281;54.406;18.556;2022-12-29T09:35:18;7.10;;;6.40;;
20245;SDS011;10281;54.406;18.556;2022-12-29T09:37:45;7.23;;;6.10;;
20245;SDS011;10281;54.406;18.556;2022-12-29T09:40:18;9.07;;;6.73;;
20245;SDS011;10281;54.406;18.556;2022-12-29T09:42:49;8.13;;;6.17;;
20245;SDS011;10281;54.406;18.556;2022-12-29T09:45:21;8.63;;;6.27;;
20245;SDS011;10281;54.406;18.556;2022-12-29T09:47:50;8.33;;;5.53;;
20245;SDS011;10281;54.406;18.556;2022-12-29T09:50:22;6.00;;;5.40;;
20245;SDS011;10281;54.406;18.556;2022-12-29T09:53:09;5.63;;;5.03;;
20245;SDS011;10281;54.406;18.556;2022-12-29T09:55:39;11.17;;;7.13;;
20245;SDS011;10281;54.406;18.556;2022-12-29T09:58:12;7.00;;;5.27;;
20245;SDS011;10281;54.406;18.556;2022-12-29T10:00:48;5.53;;;4.83;;
20245;SDS011;10281;54.406;18.556;2022-12-29T10:03:19;6.03;;;4.60;;
20245;SDS011;10281;54.406;18.556;2022-12-29T10:05:53;5.93;;;5.10;;
20245;SDS011;10281;54.406;18.556;2022-12-29T10:08:34;6.73;;;4.50;;
20245;SDS011;10281;54.406;18.556;2022-12-29T10:11:29;5.90;;;4.80;;
20245;SDS011;10281;54.406;18.556;2022-12-29T10:14:21;6.27;;;4.80;;
20245;SDS011;10281;54.406;18.556;2022-12-29T10:17:41;6.23;;;4.80;;
20245;SDS011;10281;54.406;18.556;2022-12-29T10:20:02;5.33;;;4.60;;
20245;SDS011;10281;54.406;18.556;2022-12-29T10:22:48;6.40;;;4.87;;
20245;SDS011;10281;54.406;18.556;2022-12-29T10:25:18;6.03;;;4.77;;
20245;SDS011;10281;54.406;18.556;2022-12-29T10:27:49;7.60;;;5.03;;
20245;SDS011;10281;54.406;18.556;2022-12-29T10:30:16;6.83;;;5.10;;
20245;SDS011;10281;54.406;18.556;2022-12-29T10:32:49;7.40;;;5.30;;
20245;SDS011;10281;54.406;18.556;2022-12-29T10:35:21;5.07;;;4.57;;
20245;SDS011;10281;54.406;18.556;2022-12-29T10:37:53;7.07;;;4.40;;
20245;SDS011;10281;54.406;18.556;2022-12-29T10:40:25;5.03;;;4.30;;
20245;SDS011;10281;54.406;18.556;2022-12-29T10:42:54;4.93;;;4.43;;
20245;SDS011;10281;54.406;18.556;2022-12-29T10:45:24;7.10;;;4.90;;
20245;SDS011;10281;54.406;18.556;2022-12-29T10:48:00;6.07;;;4.80;;
20245;SDS011;10281;54.406;18.556;2022-12-29T10:50:31;5.60;;;5.00;;
20245;SDS011;10281;54.406;18.556;2022-12-29T10:52:58;4.93;;;4.27;;
20245;SDS011;10281;54.406;18.556;2022-12-29T10:55:30;5.83;;;4.13;;
20245;SDS011;10281;54.406;18.556;2022-12-29T10:57:59;8.50;;;4.70;;
20245;SDS011;10281;54.406;18.556;2022-12-29T11:00:30;7.23;;;4.23;;
20245;SDS011;10281;54.406;18.556;2022-12-29T11:03:02;5.13;;;4.23;;
20245;SDS011;10281;54.406;18.556;2022-12-29T11:05:52;7.43;;;5.43;;
20245;SDS011;10281;54.406;18.556;2022-12-29T11:08:21;6.63;;;4.43;;
20245;SDS011;10281;54.406;18.556;2022-12-29T11:10:58;8.67;;;5.33;;
20245;SDS011;10281;54.406;18.556;2022-12-29T11:13:32;8.10;;;5.93;;
20245;SDS011;10281;54.406;18.556;2022-12-29T11:16:00;6.63;;;4.57;;
20245;SDS011;10281;54.406;18.556;2022-12-29T11:18:34;5.30;;;4.37;;
20245;SDS011;10281;54.406;18.556;2022-12-29T11:21:05;6.77;;;4.23;;
20245;SDS011;10281;54.406;18.556;2022-12-29T11:23:37;6.43;;;4.20;;
20245;SDS011;10281;54.406;18.556;2022-12-29T11:26:14;7.80;;;4.93;;
20245;SDS011;10281;54.406;18.556;2022-12-29T11:28:46;7.53;;;4.80;;
20245;SDS011;10281;54.406;18.556;2022-12-29T11:31:16;4.97;;;3.93;;
20245;SDS011;10281;54.406;18.556;2022-12-29T11:33:44;6.23;;;3.97;;
20245;SDS011;10281;54.406;18.556;2022-12-29T11:36:14;6.80;;;4.23;;
20245;SDS011;10281;54.406;18.556;2022-12-29T11:38:46;6.67;;;4.60;;
20245;SDS011;10281;54.406;18.556;2022-12-29T11:41:20;6.40;;;3.90;;
20245;SDS011;10281;54.406;18.556;2022-12-29T11:43:50;5.60;;;4.20;;
20245;SDS011;10281;54.406;18.556;2022-12-29T11:46:22;4.40;;;3.90;;
20245;SDS011;10281;54.406;18.556;2022-12-29T11:48:55;5.50;;;4.00;;
20245;SDS011;10281;54.406;18.556;2022-12-29T11:51:28;4.80;;;3.90;;
20245;SDS011;10281;54.406;18.556;2022-12-29T11:53:58;5.07;;;4.17;;
20245;SDS011;10281;54.406;18.556;2022-12-29T11:56:39;4.40;;;3.87;;
20245;SDS011;10281;54.406;18.556;2022-12-29T12:01:45;5.83;;;4.20;;
20245;SDS011;10281;54.406;18.556;2022-12-29T12:04:15;6.63;;;4.00;;
20245;SDS011;10281;54.406;18.556;2022-12-29T12:06:45;9.83;;;6.17;;
20245;SDS011;10281;54.406;18.556;2022-12-29T12:09:16;5.60;;;4.00;;
20245;SDS011;10281;54.406;18.556;2022-12-29T12:11:48;6.90;;;5.17;;
20245;SDS011;10281;54.406;18.556;2022-12-29T12:14:23;5.13;;;3.73;;
20245;SDS011;10281;54.406;18.556;2022-12-29T12:16:54;10.60;;;5.90;;
20245;SDS011;10281;54.406;18.556;2022-12-29T12:19:31;7.47;;;5.00;;
20245;SDS011;10281;54.406;18.556;2022-12-29T12:22:00;11.43;;;6.10;;
20245;SDS011;10281;54.406;18.556;2022-12-29T12:24:49;5.70;;;4.30;;
20245;SDS011;10281;54.406;18.556;2022-12-29T12:27:28;6.83;;;4.10;;
20245;SDS011;10281;54.406;18.556;2022-12-29T12:30:02;6.20;;;4.50;;
20245;SDS011;10281;54.406;18.556;2022-12-29T12:33:37;6.27;;;4.63;;
20245;SDS011;10281;54.406;18.556;2022-12-29T12:35:37;4.57;;;4.03;;
20245;SDS011;10281;54.406;18.556;2022-12-29T12:38:45;7.43;;;3.90;;
20245;SDS011;10281;54.406;18.556;2022-12-29T12:41:00;5.97;;;4.87;;
20245;SDS011;10281;54.406;18.556;2022-12-29T12:43:49;6.20;;;4.33;;
20245;SDS011;10281;54.406;18.556;2022-12-29T12:46:19;5.17;;;4.07;;
20245;SDS011;10281;54.406;18.556;2022-12-29T12:49:11;5.53;;;4.30;;
20245;SDS011;10281;54.406;18.556;2022-12-29T12:52:47;7.50;;;4.33;;
20245;SDS011;10281;54.406;18.556;2022-12-29T12:54:37;7.13;;;4.70;;
20245;SDS011;10281;54.406;18.556;2022-12-29T12:57:32;6.07;;;4.37;;
20245;SDS011;10281;54.406;18.556;2022-12-29T13:00:11;8.77;;;4.50;;
20245;SDS011;10281;54.406;18.556;2022-12-29T13:02:46;7.57;;;5.10;;
20245;SDS011;10281;54.406;18.556;2022-12-29T13:05:17;6.17;;;4.40;;
20245;SDS011;10281;54.406;18.556;2022-12-29T13:08:17;4.57;;;3.93;;
20245;SDS011;10281;54.406;18.556;2022-12-29T13:10:41;5.10;;;4.20;;
20245;SDS011;10281;54.406;18.556;2022-12-29T13:13:17;5.67;;;4.00;;
20245;SDS011;10281;54.406;18.556;2022-12-29T13:16:04;7.13;;;4.10;;
20245;SDS011;10281;54.406;18.556;2022-12-29T13:18:37;5.80;;;3.97;;
20245;SDS011;10281;54.406;18.556;2022-12-29T13:21:07;7.57;;;4.23;;
20245;SDS011;10281;54.406;18.556;2022-12-29T13:23:39;4.87;;;3.80;;
20245;SDS011;10281;54.406;18.556;2022-12-29T13:26:12;6.07;;;3.90;;
20245;SDS011;10281;54.406;18.556;2022-12-29T13:28:48;4.73;;;4.00;;
20245;SDS011;10281;54.406;18.556;2022-12-29T13:34:00;4.83;;;3.63;;
20245;SDS011;10281;54.406;18.556;2022-12-29T13:36:35;5.17;;;3.93;;
20245;SDS011;10281;54.406;18.556;2022-12-29T13:39:11;5.03;;;3.73;;
20245;SDS011;10281;54.406;18.556;2022-12-29T13:41:49;7.03;;;3.83;;
20245;SDS011;10281;54.406;18.556;2022-12-29T13:44:21;5.50;;;3.77;;
20245;SDS011;10281;54.406;18.556;2022-12-29T13:46:50;4.50;;;4.07;;
20245;SDS011;10281;54.406;18.556;2022-12-29T13:49:20;4.70;;;3.80;;
20245;SDS011;10281;54.406;18.556;2022-12-29T13:51:51;5.73;;;4.40;;
20245;SDS011;10281;54.406;18.556;2022-12-29T13:54:27;6.77;;;4.40;;
20245;SDS011;10281;54.406;18.556;2022-12-29T13:56:58;6.37;;;4.33;;
20245;SDS011;10281;54.406;18.556;2022-12-29T13:59:52;6.13;;;4.63;;
20245;SDS011;10281;54.406;18.556;2022-12-29T14:02:31;5.37;;;4.70;;
20245;SDS011;10281;54.406;18.556;2022-12-29T14:05:02;4.97;;;4.40;;
20245;SDS011;10281;54.406;18.556;2022-12-29T14:07:36;6.20;;;4.77;;
20245;SDS011;10281;54.406;18.556;2022-12-29T14:10:04;5.57;;;4.20;;
20245;SDS011;10281;54.406;18.556;2022-12-29T14:12:32;5.50;;;4.30;;
20245;SDS011;10281;54.406;18.556;2022-12-29T14:15:05;5.93;;;4.23;;
20245;SDS011;10281;54.406;18.556;2022-12-29T14:17:34;6.23;;;3.80;;
20245;SDS011;10281;54.406;18.556;2022-12-29T14:20:02;5.43;;;4.40;;
20245;SDS011;10281;54.406;18.556;2022-12-29T14:22:33;6.00;;;4.33;;
20245;SDS011;10281;54.406;18.556;2022-12-29T14:24:59;8.40;;;5.47;;
20245;SDS011;10281;54.406;18.556;2022-12-29T14:30:29;10.53;;;8.03;;
20245;SDS011;10281;54.406;18.556;2022-12-29T14:33:01;12.83;;;9.43;;
20245;SDS011;10281;54.406;18.556;2022-12-29T14:35:37;12.37;;;9.97;;
20245;SDS011;10281;54.406;18.556;2022-12-29T14:38:06;24.07;;;15.40;;
20245;SDS011;10281;54.406;18.556;2022-12-29T14:40:41;32.87;;;19.53;;
20245;SDS011;10281;54.406;18.556;2022-12-29T14:43:12;9.83;;;6.67;;
20245;SDS011;10281;54.406;18.556;2022-12-29T14:45:53;12.43;;;8.60;;
20245;SDS011;10281;54.406;18.556;2022-12-29T14:48:36;14.83;;;8.33;;
20245;SDS011;10281;54.406;18.556;2022-12-29T14:53:44;13.33;;;7.37;;
20245;SDS011;10281;54.406;18.556;2022-12-29T14:56:15;9.80;;;6.10;;
20245;SDS011;10281;54.406;18.556;2022-12-29T14:58:46;11.37;;;5.37;;
20245;SDS011;10281;54.406;18.556;2022-12-29T15:01:18;15.07;;;7.87;;
20245;SDS011;10281;54.406;18.556;2022-12-29T15:03:48;18.30;;;8.07;;
20245;SDS011;10281;54.406;18.556;2022-12-29T15:06:17;11.30;;;6.33;;
20245;SDS011;10281;54.406;18.556;2022-12-29T15:08:51;11.63;;;6.60;;
20245;SDS011;10281;54.406;18.556;2022-12-29T15:11:22;28.17;;;12.43;;
20245;SDS011;10281;54.406;18.556;2022-12-29T15:13:50;12.83;;;7.47;;
20245;SDS011;10281;54.406;18.556;2022-12-29T15:16:21;8.90;;;5.30;;